createdAt,value
2023-02-13T00:01:01.343Z,30.80
2023-02-13T00:03:29.438Z,31.30
2023-02-13T00:05:57.434Z,30.10
2023-02-13T00:08:25.511Z,30.90
2023-02-13T00:10:55.167Z,29.88
2023-02-13T00:13:23.380Z,31.15
2023-02-13T00:15:57.570Z,30.73
2023-02-13T00:18:25.731Z,30.75
2023-02-13T00:21:01.668Z,31.95
2023-02-13T00:23:31.775Z,31.90
2023-02-13T00:26:02.266Z,31.05
2023-02-13T00:28:30.329Z,31.95
2023-02-13T00:31:05.322Z,32.50
2023-02-13T00:33:33.530Z,32.05
2023-02-13T00:36:10.118Z,31.02
2023-02-13T00:38:38.486Z,31.85
2023-02-13T00:41:08.074Z,31.23
2023-02-13T00:43:36.625Z,31.42
2023-02-13T00:46:04.881Z,31.38
2023-02-13T00:48:34.999Z,30.42
2023-02-13T00:51:03.484Z,31.92
2023-02-13T00:53:32.051Z,30.63
2023-02-13T00:56:00.211Z,31.15
2023-02-13T00:58:29.689Z,30.02
2023-02-13T01:00:57.999Z,31.17
2023-02-13T01:03:26.735Z,30.48
2023-02-13T01:05:54.921Z,32.10
2023-02-13T01:08:22.957Z,31.10
2023-02-13T01:10:51.371Z,31.15
2023-02-13T01:13:19.539Z,31.95
2023-02-13T01:15:49.643Z,31.33
2023-02-13T01:18:19.988Z,31.55
2023-02-13T01:20:58.323Z,30.88
2023-02-13T01:23:26.556Z,32.92
2023-02-13T01:25:54.680Z,31.23
2023-02-13T01:28:22.767Z,31.85
2023-02-13T01:30:56.877Z,30.48
2023-02-13T01:33:26.274Z,33.58
2023-02-13T01:35:54.660Z,31.98
2023-02-13T01:38:23.389Z,30.52
2023-02-13T01:40:53.860Z,31.90
2023-02-13T01:43:23.777Z,32.03
2023-02-13T01:45:57.015Z,33.33
2023-02-13T01:48:26.694Z,31.60
2023-02-13T01:50:59.861Z,33.05
2023-02-13T01:53:32.193Z,32.10
2023-02-13T01:56:04.074Z,32.08
2023-02-13T01:58:35.207Z,31.50
2023-02-13T02:01:06.827Z,33.35
2023-02-13T02:03:39.102Z,33.58
2023-02-13T02:06:12.200Z,32.25
2023-02-13T02:08:40.738Z,32.03
2023-02-13T02:11:16.018Z,32.50
2023-02-13T02:13:44.512Z,33.95
2023-02-13T02:16:14.019Z,32.97
2023-02-13T02:18:44.771Z,32.55
2023-02-13T02:21:46.922Z,33.75
2023-02-13T02:24:51.675Z,32.83
2023-02-13T02:27:41.869Z,31.45
2023-02-13T02:30:40.859Z,32.17
2023-02-13T02:33:22.794Z,32.22
2023-02-13T02:36:02.297Z,31.13
2023-02-13T02:38:47.035Z,32.47
2023-02-13T02:41:38.366Z,32.83
2023-02-13T02:44:16.731Z,32.72
2023-02-13T02:47:10.711Z,32.53
2023-02-13T02:50:02.123Z,32.78
2023-02-13T02:52:41.752Z,31.52
2023-02-13T02:55:17.095Z,31.52
2023-02-13T02:58:07.761Z,31.83
2023-02-13T03:00:58.113Z,32.47
2023-02-13T03:03:45.905Z,32.20
2023-02-13T03:06:20.187Z,32.28
2023-02-13T03:09:15.169Z,33.33
2023-02-13T03:12:03.187Z,32.90
2023-02-13T03:14:31.426Z,31.95
2023-02-13T03:17:17.453Z,33.55
2023-02-13T03:20:16.781Z,31.98
2023-02-13T03:22:59.988Z,32.55
2023-02-13T03:25:35.190Z,32.75
2023-02-13T03:28:30.135Z,33.03
2023-02-13T03:31:09.832Z,33.42
2023-02-13T03:33:58.792Z,33.38
2023-02-13T03:36:59.902Z,32.75
2023-02-13T03:39:42.042Z,32.85
2023-02-13T03:42:16.723Z,33.47
2023-02-13T03:45:11.007Z,33.83
2023-02-13T03:47:41.014Z,32.50
2023-02-13T03:50:10.535Z,33.17
2023-02-13T03:52:47.664Z,32.55
2023-02-13T03:55:37.254Z,32.25
2023-02-13T03:58:27.949Z,32.40
2023-02-13T04:00:59.349Z,32.20
2023-02-13T04:03:32.283Z,32.72
2023-02-13T04:06:07.403Z,32.92
2023-02-13T04:08:35.453Z,34.92
2023-02-13T04:11:10.680Z,33.47
2023-02-13T04:13:47.254Z,32.95
2023-02-13T04:16:19.499Z,32.42
2023-02-13T04:18:49.471Z,33.58
2023-02-13T04:21:17.526Z,33.40
2023-02-13T04:23:45.556Z,34.03
2023-02-13T04:26:19.656Z,33.05
2023-02-13T04:28:47.759Z,32.88
2023-02-13T04:31:16.286Z,32.92
2023-02-13T04:33:44.345Z,34.42
2023-02-13T04:36:12.337Z,31.83
2023-02-13T04:38:40.354Z,32.72
2023-02-13T04:41:08.356Z,32.47
2023-02-13T04:43:37.806Z,33.45
2023-02-13T04:46:06.298Z,34.33
2023-02-13T04:48:34.331Z,33.03
2023-02-13T04:51:02.386Z,34.13
2023-02-13T04:53:30.655Z,33.38
2023-02-13T04:55:58.732Z,33.45
2023-02-13T04:58:26.893Z,31.70
2023-02-13T05:00:56.587Z,33.22
2023-02-13T05:03:24.951Z,31.95
2023-02-13T05:05:52.928Z,34.50
2023-02-13T05:08:20.991Z,33.45
2023-02-13T05:10:49.893Z,34.88
2023-02-13T05:13:21.608Z,31.63
2023-02-13T05:15:49.778Z,32.10
2023-02-13T05:18:19.218Z,32.92
2023-02-13T05:21:07.639Z,32.47
2023-02-13T05:23:34.650Z,31.48
2023-02-13T05:26:02.688Z,31.20
2023-02-13T05:28:48.287Z,33.00
2023-02-13T05:31:16.423Z,31.67
2023-02-13T05:33:45.915Z,30.23
2023-02-13T05:36:13.919Z,32.22
2023-02-13T05:38:42.257Z,32.15
2023-02-13T05:41:10.323Z,31.92
2023-02-13T05:43:38.355Z,31.15
2023-02-13T05:46:07.840Z,30.80
2023-02-13T05:48:36.207Z,32.28
2023-02-13T05:51:06.257Z,32.03
2023-02-13T05:53:35.479Z,31.48
2023-02-13T05:56:03.914Z,32.05
2023-02-13T05:58:32.395Z,32.15
2023-02-13T06:01:01.289Z,31.38
2023-02-13T06:03:31.596Z,32.30
2023-02-13T06:06:00.440Z,31.98
2023-02-13T06:08:30.372Z,32.10
2023-02-13T06:10:58.819Z,34.90
2023-02-13T06:13:27.135Z,32.83
2023-02-13T06:15:55.651Z,33.20
2023-02-13T06:18:23.708Z,32.08
2023-02-13T06:20:51.739Z,32.38
2023-02-13T06:23:19.844Z,32.60
2023-02-13T06:25:49.225Z,33.10
2023-02-13T06:28:17.349Z,32.70
2023-02-13T06:30:45.541Z,34.60
2023-02-13T06:33:13.538Z,33.45
2023-02-13T06:35:41.534Z,32.40
2023-02-13T06:38:09.572Z,33.38
2023-02-13T06:40:37.618Z,33.38
2023-02-13T06:43:07.040Z,34.15
2023-02-13T06:45:35.092Z,32.28
2023-02-13T06:48:03.097Z,31.45
2023-02-13T06:50:31.148Z,31.88
2023-02-13T06:52:59.251Z,33.63
2023-02-13T06:55:27.469Z,33.63
2023-02-13T06:57:55.625Z,34.13
2023-02-13T07:00:27.199Z,32.83
2023-02-13T07:02:55.427Z,32.75
2023-02-13T07:05:23.550Z,33.30
2023-02-13T07:07:51.519Z,33.05
2023-02-13T07:10:19.652Z,32.85
2023-02-13T07:13:00.282Z,32.22
2023-02-13T07:15:34.869Z,32.78
2023-02-13T07:18:03.082Z,31.60
2023-02-13T07:20:31.272Z,32.72
2023-02-13T07:23:00.475Z,33.75
2023-02-13T07:25:28.797Z,34.00
2023-02-13T07:27:56.939Z,34.00
2023-02-13T07:30:25.087Z,33.90
2023-02-13T07:32:54.519Z,35.20
2023-02-13T07:35:22.462Z,34.33
2023-02-13T07:37:50.432Z,34.38
2023-02-13T07:40:18.644Z,35.15
2023-02-13T07:42:46.665Z,36.10
2023-02-13T07:45:15.637Z,34.80
2023-02-13T07:47:43.856Z,35.83
2023-02-13T07:50:14.295Z,35.97
2023-02-13T07:52:42.281Z,36.33
2023-02-13T07:55:11.649Z,35.70
2023-02-13T07:57:39.690Z,35.72
2023-02-13T08:00:09.146Z,36.05
2023-02-13T08:02:37.142Z,39.00
2023-02-13T08:05:05.604Z,40.30
2023-02-13T08:07:35.365Z,41.28
2023-02-13T08:10:21.449Z,39.50
2023-02-13T08:12:49.764Z,41.33
2023-02-13T08:15:17.868Z,40.13
2023-02-13T08:17:45.932Z,40.22
2023-02-13T08:20:14.029Z,40.72
2023-02-13T08:22:43.422Z,40.97
2023-02-13T08:25:11.570Z,39.30
2023-02-13T08:27:40.387Z,39.00
2023-02-13T08:30:09.924Z,39.58
2023-02-13T08:32:53.190Z,39.40
2023-02-13T08:35:22.839Z,39.58
2023-02-13T08:37:52.322Z,46.17
2023-02-13T08:40:20.596Z,43.67
2023-02-13T08:42:48.745Z,39.20
2023-02-13T08:45:16.897Z,40.03
2023-02-13T08:47:44.949Z,39.83
2023-02-13T08:50:12.984Z,39.13
2023-02-13T08:52:40.998Z,37.95
2023-02-13T08:55:10.481Z,39.72
2023-02-13T08:57:38.443Z,38.90
2023-02-13T09:00:07.621Z,39.72
2023-02-13T09:02:35.655Z,39.28
2023-02-13T09:05:03.684Z,40.05
2023-02-13T09:07:31.691Z,40.17
2023-02-13T09:09:59.698Z,40.90
2023-02-13T09:12:29.043Z,39.70
2023-02-13T09:14:57.066Z,40.42
2023-02-13T09:17:25.058Z,40.00
2023-02-13T09:19:53.101Z,40.90
2023-02-13T09:22:21.111Z,39.15
2023-02-13T09:24:49.114Z,40.13
2023-02-13T09:27:17.114Z,40.63
2023-02-13T09:29:46.539Z,40.42
2023-02-13T09:32:14.567Z,40.78
2023-02-13T09:34:42.582Z,40.72
2023-02-13T09:37:10.605Z,39.95
2023-02-13T09:39:38.666Z,40.10
2023-02-13T09:42:18.252Z,40.75
2023-02-13T09:44:50.162Z,41.78
2023-02-13T09:47:23.478Z,42.58
2023-02-13T09:49:54.776Z,41.53
2023-02-13T09:52:22.973Z,41.53
2023-02-13T09:54:51.003Z,43.10
2023-02-13T09:57:26.581Z,42.58
2023-02-13T10:00:02.075Z,43.25
2023-02-13T10:02:54.893Z,42.13
2023-02-13T10:08:04.684Z,41.03
2023-02-13T10:10:41.143Z,39.78
2023-02-13T10:13:27.743Z,38.60
2023-02-13T10:16:03.955Z,39.42
2023-02-13T10:18:43.660Z,39.83
2023-02-13T10:21:13.243Z,40.35
2023-02-13T10:23:45.081Z,38.45
2023-02-13T10:26:20.311Z,39.38
2023-02-13T10:29:13.470Z,39.25
2023-02-13T10:31:45.741Z,38.85
2023-02-13T10:36:46.596Z,38.33
2023-02-13T10:39:24.121Z,41.05
2023-02-13T10:41:54.686Z,42.17
2023-02-13T10:44:35.934Z,40.08
2023-02-13T10:47:19.152Z,39.53
2023-02-13T10:50:11.921Z,40.75
2023-02-13T10:55:38.292Z,40.38
2023-02-13T10:58:13.620Z,41.40
2023-02-13T11:00:47.485Z,38.58
2023-02-13T11:03:20.898Z,40.05
2023-02-13T11:05:49.213Z,40.95
2023-02-13T11:08:21.357Z,42.45
2023-02-13T11:10:49.622Z,43.55
2023-02-13T11:13:21.048Z,41.40
2023-02-13T11:16:04.912Z,39.07
2023-02-13T11:18:37.366Z,40.28
2023-02-13T11:21:10.578Z,41.55
2023-02-13T11:23:44.494Z,40.35
2023-02-13T11:26:16.511Z,41.20
2023-02-13T11:28:51.871Z,41.47
2023-02-13T11:31:28.975Z,40.65
2023-02-13T11:34:00.049Z,40.20
2023-02-13T11:39:23.703Z,40.25
2023-02-13T11:41:52.246Z,40.40
2023-02-13T11:44:25.366Z,38.30
2023-02-13T11:46:55.238Z,37.45
2023-02-13T11:49:27.128Z,38.15
2023-02-13T11:51:57.734Z,36.80
2023-02-13T11:54:33.376Z,35.83
2023-02-13T11:57:05.150Z,36.72
2023-02-13T11:59:41.960Z,37.63
2023-02-13T12:02:18.880Z,35.50
2023-02-13T12:04:50.244Z,34.28
2023-02-13T12:07:21.949Z,34.50
2023-02-13T12:09:55.024Z,30.95
2023-02-13T12:12:28.867Z,34.17
2023-02-13T12:14:58.243Z,33.38
2023-02-13T12:17:32.080Z,33.30
2023-02-13T12:20:02.514Z,32.80
2023-02-13T12:22:45.675Z,32.50
2023-02-13T12:25:29.494Z,30.60
2023-02-13T12:28:18.466Z,29.13
2023-02-13T12:31:21.445Z,30.73
2023-02-13T12:36:55.944Z,26.02
2023-02-13T12:39:31.750Z,25.80
2023-02-13T12:42:23.393Z,26.00
2023-02-13T12:45:15.259Z,26.35
2023-02-13T12:48:00.448Z,24.90
2023-02-13T12:50:41.566Z,24.77
2023-02-13T12:53:35.755Z,22.83
2023-02-13T12:56:37.245Z,22.33
2023-02-13T12:59:10.730Z,23.98
2023-02-13T13:01:55.298Z,22.48
2023-02-13T13:04:34.079Z,21.05
2023-02-13T13:07:20.514Z,20.77
2023-02-13T13:10:11.932Z,20.77
2023-02-13T13:12:49.370Z,21.52
2023-02-13T13:15:28.060Z,19.98
2023-02-13T13:18:07.261Z,20.92
2023-02-13T13:21:00.044Z,20.40
2023-02-13T13:23:33.715Z,19.95
2023-02-13T13:26:14.635Z,20.52
2023-02-13T13:28:45.091Z,19.98
2023-02-13T13:31:14.854Z,19.13
2023-02-13T13:33:46.233Z,19.67
2023-02-13T13:36:20.824Z,19.92
2023-02-13T13:38:57.805Z,18.42
2023-02-13T13:41:39.152Z,19.45
2023-02-13T13:44:27.757Z,19.08
2023-02-13T13:47:01.283Z,19.40
2023-02-13T13:49:38.396Z,18.65
2023-02-13T13:52:22.560Z,17.70
2023-02-13T13:54:52.453Z,16.20
2023-02-13T13:57:22.590Z,15.90
2023-02-13T14:00:25.086Z,16.60
2023-02-13T14:03:21.601Z,15.95
2023-02-13T14:06:05.431Z,16.73
2023-02-13T14:09:04.809Z,16.30
2023-02-13T14:11:36.011Z,16.20
2023-02-13T14:14:53.102Z,16.45
2023-02-13T14:17:53.492Z,16.63
2023-02-13T14:20:28.256Z,18.35
2023-02-13T14:22:56.478Z,18.05
2023-02-13T14:25:26.899Z,18.33
2023-02-13T14:28:00.753Z,17.15
2023-02-13T14:30:34.289Z,18.85
2023-02-13T14:33:06.713Z,17.75
2023-02-13T14:35:37.847Z,18.67
2023-02-13T14:38:08.204Z,18.27
2023-02-13T14:40:47.949Z,17.83
2023-02-13T14:43:33.409Z,17.80
2023-02-13T14:46:20.535Z,16.83
2023-02-13T14:48:56.567Z,17.13
2023-02-13T14:51:35.410Z,17.63
2023-02-13T14:54:08.164Z,17.42
2023-02-13T14:56:39.513Z,16.67
2023-02-13T14:59:18.126Z,15.73
2023-02-13T15:01:53.695Z,15.95
2023-02-13T15:04:31.769Z,16.02
2023-02-13T15:07:03.399Z,16.90
2023-02-13T15:09:38.946Z,15.70
2023-02-13T15:12:26.586Z,15.35
2023-02-13T15:14:54.834Z,15.77
2023-02-13T15:17:28.686Z,15.13
2023-02-13T15:20:00.957Z,15.30
2023-02-13T15:25:00.806Z,15.40
2023-02-13T15:27:30.922Z,14.82
2023-02-13T15:30:02.309Z,15.57
2023-02-13T15:32:34.889Z,15.00
2023-02-13T15:35:03.353Z,15.57
2023-02-13T15:37:32.158Z,16.48
2023-02-13T15:40:26.777Z,16.67
2023-02-13T15:42:56.177Z,16.05
2023-02-13T15:45:26.418Z,16.05
2023-02-13T15:47:56.695Z,16.42
2023-02-13T15:50:31.091Z,16.10
2023-02-13T15:52:59.963Z,15.95
2023-02-13T15:55:31.207Z,15.48
2023-02-13T15:58:02.216Z,16.20
2023-02-13T16:00:32.610Z,16.98
2023-02-13T16:03:04.716Z,17.27
2023-02-13T16:08:35.389Z,16.20
2023-02-13T16:11:26.890Z,17.13
2023-02-13T16:14:02.336Z,16.52
2023-02-13T16:16:32.606Z,16.50
2023-02-13T16:19:02.123Z,16.92
2023-02-13T16:21:34.490Z,16.10
2023-02-13T16:24:07.580Z,16.15
2023-02-13T16:26:39.158Z,16.15
2023-02-13T16:29:11.885Z,16.10
2023-02-13T16:31:41.132Z,17.40
2023-02-13T16:34:24.064Z,18.15
2023-02-13T16:36:52.394Z,17.33
2023-02-13T16:39:24.243Z,17.75
2023-02-13T16:41:53.251Z,18.00
2023-02-13T16:44:26.951Z,17.27
2023-02-13T16:47:01.437Z,18.08
2023-02-13T16:49:33.708Z,17.77
2023-02-13T16:54:38.646Z,18.38
2023-02-13T16:57:18.617Z,18.92
2023-02-13T17:00:00.317Z,18.08
2023-02-13T17:02:29.019Z,19.30
2023-02-13T17:05:03.233Z,18.25
2023-02-13T17:07:34.686Z,19.48
2023-02-13T17:10:05.392Z,20.13
2023-02-13T17:12:36.821Z,20.17
2023-02-13T17:15:12.249Z,20.55
2023-02-13T17:17:40.512Z,22.23
2023-02-13T17:20:17.672Z,20.35
2023-02-13T17:22:48.139Z,20.25
2023-02-13T17:25:22.491Z,20.05
2023-02-13T17:27:51.819Z,21.42
2023-02-13T17:30:22.275Z,21.30
2023-02-13T17:32:56.928Z,21.70
2023-02-13T17:35:27.001Z,21.25
2023-02-13T17:37:55.341Z,20.73
2023-02-13T17:40:25.492Z,22.00
2023-02-13T17:42:55.451Z,21.73
2023-02-13T17:45:25.520Z,22.02
2023-02-13T17:47:53.843Z,21.45
2023-02-13T17:50:22.159Z,22.17
2023-02-13T17:52:52.098Z,21.95
2023-02-13T17:55:22.243Z,23.15
2023-02-13T17:57:50.441Z,23.20
2023-02-13T18:00:20.117Z,23.77
2023-02-13T18:02:49.332Z,23.70
2023-02-13T18:05:18.882Z,24.60
2023-02-13T18:07:48.353Z,24.60
2023-02-13T18:10:21.454Z,24.45
2023-02-13T18:12:51.322Z,24.90
2023-02-13T18:15:20.444Z,24.83
2023-02-13T18:17:48.765Z,24.23
2023-02-13T18:20:19.094Z,23.58
2023-02-13T18:22:47.354Z,24.65
2023-02-13T18:25:15.383Z,24.73
2023-02-13T18:27:44.800Z,24.35
2023-02-13T18:30:14.685Z,24.23
2023-02-13T18:32:43.036Z,25.73
2023-02-13T18:35:11.629Z,24.80
2023-02-13T18:37:40.188Z,26.00
2023-02-13T18:40:09.290Z,24.63
2023-02-13T18:42:38.948Z,25.95
2023-02-13T18:45:09.275Z,25.90
2023-02-13T18:47:37.705Z,27.45
2023-02-13T18:50:06.585Z,26.73
2023-02-13T18:52:35.483Z,26.67
2023-02-13T18:55:03.824Z,28.17
2023-02-13T18:57:31.931Z,27.10
2023-02-13T19:00:00.001Z,28.08
2023-02-13T19:02:30.533Z,28.55
2023-02-13T19:04:58.834Z,28.75
2023-02-13T19:07:26.865Z,27.45
2023-02-13T19:09:55.140Z,27.95
2023-02-13T19:12:23.236Z,29.45
2023-02-13T19:14:51.266Z,32.30
2023-02-13T19:17:19.388Z,31.08
2023-02-13T19:19:50.367Z,31.33
2023-02-13T19:22:18.634Z,31.83
2023-02-13T19:24:46.728Z,32.95
2023-02-13T19:27:14.889Z,32.33
2023-02-13T19:29:42.945Z,31.73
2023-02-13T19:32:11.218Z,30.50
2023-02-13T19:34:39.589Z,30.98
2023-02-13T19:37:09.003Z,29.95
2023-02-13T19:39:37.179Z,31.33
2023-02-13T19:42:05.494Z,32.28
2023-02-13T19:44:33.493Z,32.75
2023-02-13T19:47:01.558Z,32.97
2023-02-13T19:49:29.638Z,32.35
2023-02-13T19:51:57.701Z,32.15
2023-02-13T19:54:27.144Z,32.78
2023-02-13T19:57:00.438Z,31.40
2023-02-13T19:59:28.958Z,33.25
2023-02-13T20:01:57.101Z,34.30
2023-02-13T20:04:25.370Z,35.72
2023-02-13T20:06:58.225Z,35.33
2023-02-13T20:09:27.761Z,36.08
2023-02-13T20:11:55.888Z,35.97
2023-02-13T20:14:23.919Z,38.42
2023-02-13T20:16:52.009Z,37.58
2023-02-13T20:19:20.060Z,35.40
2023-02-13T20:21:48.062Z,35.78
2023-02-13T20:24:16.128Z,36.00
2023-02-13T20:26:45.591Z,36.15
2023-02-13T20:29:13.649Z,37.13
2023-02-13T20:31:43.258Z,39.28
2023-02-13T20:34:11.771Z,37.33
2023-02-13T20:36:40.111Z,39.10
2023-02-13T20:39:08.805Z,40.50
2023-02-13T20:41:37.986Z,39.53
2023-02-13T20:44:09.773Z,43.00
2023-02-13T20:46:40.077Z,44.88
2023-02-13T20:49:08.781Z,47.20
2023-02-13T20:51:36.904Z,46.28
2023-02-13T20:54:05.509Z,47.85
2023-02-13T20:56:33.585Z,45.70
2023-02-13T20:59:03.342Z,44.20
2023-02-13T21:01:35.118Z,48.20
2023-02-13T21:04:03.408Z,48.25
2023-02-13T21:06:34.000Z,47.35
2023-02-13T21:09:02.584Z,45.60
2023-02-13T21:11:30.783Z,45.55
2023-02-13T21:13:59.461Z,45.05
2023-02-13T21:16:30.103Z,41.90
2023-02-13T21:19:01.511Z,43.85
2023-02-13T21:21:31.491Z,43.97
2023-02-13T21:24:02.324Z,47.20
2023-02-13T21:26:31.771Z,45.95
2023-02-13T21:29:00.303Z,42.35
2023-02-13T21:31:30.477Z,42.80
2023-02-13T21:34:03.045Z,45.70
2023-02-13T21:38:59.799Z,43.60
2023-02-13T21:41:28.142Z,43.05
2023-02-13T21:43:56.259Z,42.13
2023-02-13T21:46:26.273Z,44.53
2023-02-13T21:48:55.401Z,44.08
2023-02-13T21:51:26.557Z,47.85
2023-02-13T21:53:55.693Z,46.92
2023-02-13T21:56:26.100Z,47.03
2023-02-13T21:58:54.873Z,47.70
2023-02-13T22:01:26.775Z,46.72
2023-02-13T22:06:27.824Z,45.63
2023-02-13T22:08:59.715Z,46.45
2023-02-13T22:11:28.161Z,50.15
2023-02-13T22:13:56.836Z,48.42
2023-02-13T22:16:25.676Z,49.85
2023-02-13T22:18:53.725Z,52.28
2023-02-13T22:21:24.061Z,50.03
2023-02-13T22:23:54.075Z,50.08
2023-02-13T22:26:25.787Z,50.28
2023-02-13T22:28:55.059Z,51.00
2023-02-13T22:31:25.774Z,52.75
2023-02-13T22:34:03.294Z,57.35
2023-02-13T22:36:32.733Z,57.13
2023-02-13T22:39:02.250Z,55.72
2023-02-13T22:41:30.662Z,58.55
2023-02-13T22:43:58.905Z,52.97
2023-02-13T22:46:28.245Z,54.22
2023-02-13T22:48:56.986Z,56.22
2023-02-13T22:51:28.062Z,55.25
2023-02-13T22:53:57.690Z,59.72
2023-02-13T22:56:28.969Z,61.78
2023-02-13T22:58:57.031Z,58.33
2023-02-13T23:01:27.618Z,57.15
2023-02-13T23:03:56.405Z,57.10
2023-02-13T23:06:25.785Z,59.90
2023-02-13T23:08:54.861Z,59.05
2023-02-13T23:11:42.921Z,56.38
2023-02-13T23:14:12.529Z,60.75
2023-02-13T23:16:58.744Z,63.97
2023-02-13T23:19:27.609Z,58.42
2023-02-13T23:21:55.803Z,54.97
2023-02-13T23:24:24.447Z,52.30
2023-02-13T23:26:52.511Z,49.97
2023-02-13T23:29:22.085Z,58.22
2023-02-13T23:31:50.142Z,58.92
2023-02-13T23:34:18.279Z,59.72
2023-02-13T23:36:46.337Z,60.25
2023-02-13T23:39:14.590Z,67.55
2023-02-13T23:41:42.671Z,65.18
2023-02-13T23:44:10.663Z,69.05
2023-02-13T23:46:40.144Z,69.90
2023-02-13T23:49:08.192Z,69.05
2023-02-13T23:51:36.291Z,68.70
2023-02-13T23:54:05.007Z,67.82
2023-02-13T23:56:33.223Z,64.60
2023-02-13T23:59:01.278Z,65.00
